createdAt,value
2022-07-28T00:01:25.085Z,17.46
2022-07-28T00:03:53.279Z,17.41
2022-07-28T00:06:21.546Z,17.38
2022-07-28T00:08:49.670Z,17.36
2022-07-28T00:11:19.697Z,17.34
2022-07-28T00:13:47.852Z,17.30
2022-07-28T00:16:15.995Z,17.28
2022-07-28T00:18:44.103Z,17.24
2022-07-28T00:21:12.405Z,17.22
2022-07-28T00:23:40.798Z,17.20
2022-07-28T00:26:10.106Z,17.18
2022-07-28T00:28:39.763Z,17.17
2022-07-28T00:31:12.267Z,17.15
2022-07-28T00:33:41.571Z,17.15
2022-07-28T00:36:11.627Z,17.20
2022-07-28T00:38:48.777Z,17.30
2022-07-28T00:41:19.738Z,17.32
2022-07-28T00:43:53.831Z,17.31
2022-07-28T00:46:25.241Z,17.28
2022-07-28T00:48:55.243Z,17.19
2022-07-28T00:51:26.670Z,17.14
2022-07-28T00:54:02.741Z,17.11
2022-07-28T00:56:32.062Z,17.09
2022-07-28T00:59:01.473Z,17.07
2022-07-28T01:01:29.598Z,17.05
2022-07-28T01:04:00.480Z,17.02
2022-07-28T01:06:55.969Z,16.96
2022-07-28T01:09:39.063Z,16.96
2022-07-28T01:12:16.719Z,16.95
2022-07-28T01:14:50.736Z,16.93
2022-07-28T01:17:27.394Z,16.93
2022-07-28T01:20:06.054Z,16.91
2022-07-28T01:22:49.356Z,16.91
2022-07-28T01:25:25.186Z,16.87
2022-07-28T01:28:05.476Z,16.86
2022-07-28T01:30:39.803Z,16.85
2022-07-28T01:33:16.554Z,16.84
2022-07-28T01:35:52.521Z,16.85
2022-07-28T01:38:21.958Z,16.86
2022-07-28T01:40:53.820Z,16.81
2022-07-28T01:43:29.671Z,16.76
2022-07-28T01:46:00.878Z,16.79
2022-07-28T01:48:30.813Z,16.84
2022-07-28T01:51:01.111Z,16.85
2022-07-28T01:53:33.040Z,16.88
2022-07-28T01:56:07.149Z,16.89
2022-07-28T01:58:36.567Z,16.92
2022-07-28T02:01:07.304Z,16.94
2022-07-28T02:03:36.209Z,16.96
2022-07-28T02:06:07.286Z,16.99
2022-07-28T02:08:36.914Z,17.02
2022-07-28T02:11:22.555Z,17.04
2022-07-28T02:13:51.903Z,17.06
2022-07-28T02:16:24.395Z,17.07
2022-07-28T02:18:54.759Z,17.11
2022-07-28T02:21:28.171Z,17.15
2022-07-28T02:24:01.004Z,17.17
2022-07-28T02:26:33.264Z,17.20
2022-07-28T02:29:06.262Z,17.22
2022-07-28T02:31:48.636Z,17.25
2022-07-28T02:34:27.877Z,17.30
2022-07-28T02:37:02.210Z,17.30
2022-07-28T02:39:34.253Z,17.32
2022-07-28T02:42:06.415Z,17.32
2022-07-28T02:44:40.616Z,17.31
2022-07-28T02:47:12.647Z,17.29
2022-07-28T02:49:43.067Z,17.29
2022-07-28T02:52:12.807Z,17.25
2022-07-28T02:54:42.810Z,17.25
2022-07-28T02:57:13.696Z,17.24
2022-07-28T02:59:43.200Z,17.22
2022-07-28T03:02:13.296Z,17.22
2022-07-28T03:05:02.079Z,17.20
2022-07-28T03:07:48.229Z,17.18
2022-07-28T03:10:33.722Z,17.18
2022-07-28T03:13:03.964Z,17.17
2022-07-28T03:15:32.462Z,17.19
2022-07-28T03:18:02.762Z,17.19
2022-07-28T03:20:33.104Z,17.20
2022-07-28T03:23:02.280Z,17.20
2022-07-28T03:25:36.198Z,17.21
2022-07-28T03:28:14.140Z,17.20
2022-07-28T03:30:46.506Z,17.19
2022-07-28T03:33:16.630Z,17.19
2022-07-28T03:35:48.724Z,17.21
2022-07-28T03:38:23.189Z,17.20
2022-07-28T03:40:55.093Z,17.21
2022-07-28T03:43:28.243Z,17.22
2022-07-28T03:45:58.993Z,17.19
2022-07-28T03:48:31.637Z,17.20
2022-07-28T03:51:01.584Z,17.19
2022-07-28T03:53:30.852Z,17.19
2022-07-28T03:56:21.331Z,17.16
2022-07-28T03:58:49.429Z,17.20
2022-07-28T04:01:47.418Z,17.20
2022-07-28T04:04:22.334Z,17.22
2022-07-28T04:07:01.823Z,17.25
2022-07-28T04:09:29.883Z,17.28
2022-07-28T04:11:58.679Z,17.34
2022-07-28T04:14:27.391Z,17.37
2022-07-28T04:16:55.951Z,17.44
2022-07-28T04:19:25.427Z,17.52
2022-07-28T04:21:53.751Z,17.59
2022-07-28T04:24:21.837Z,17.64
2022-07-28T04:30:24.929Z,17.73
2022-07-28T04:32:56.551Z,17.83
2022-07-28T04:35:44.101Z,17.95
2022-07-28T04:38:28.918Z,18.08
2022-07-28T04:40:57.682Z,18.17
2022-07-28T04:44:30.279Z,18.26
2022-07-28T04:46:59.811Z,18.33
2022-07-28T04:53:42.258Z,18.43
2022-07-28T04:56:13.512Z,18.50
2022-07-28T04:58:53.945Z,18.51
2022-07-28T05:01:39.250Z,18.49
2022-07-28T05:04:10.669Z,18.54
2022-07-28T05:06:40.514Z,18.57
2022-07-28T05:13:08.593Z,18.61
2022-07-28T05:15:45.180Z,18.67
2022-07-28T05:18:29.847Z,18.71
2022-07-28T05:20:57.943Z,18.78
2022-07-28T05:23:26.596Z,18.85
2022-07-28T05:25:56.193Z,18.92
2022-07-28T05:28:24.376Z,18.98
2022-07-28T05:30:52.605Z,19.07
2022-07-28T05:33:20.771Z,19.20
2022-07-28T05:35:54.774Z,19.30
2022-07-28T05:38:22.996Z,19.41
2022-07-28T05:40:51.471Z,19.53
2022-07-28T05:43:21.818Z,19.61
2022-07-28T05:45:50.473Z,19.66
2022-07-28T05:48:19.701Z,19.74
2022-07-28T05:50:48.079Z,19.81
2022-07-28T05:53:16.646Z,19.90
2022-07-28T05:56:00.790Z,19.98
2022-07-28T05:58:31.745Z,19.97
2022-07-28T06:01:01.915Z,19.99
2022-07-28T06:03:32.117Z,20.02
2022-07-28T06:06:16.250Z,20.07
2022-07-28T06:08:46.612Z,20.15
2022-07-28T06:11:21.836Z,20.20
2022-07-28T06:13:52.958Z,20.27
2022-07-28T06:16:22.939Z,20.32
2022-07-28T06:18:51.815Z,20.40
2022-07-28T06:21:20.030Z,20.53
2022-07-28T06:23:48.084Z,20.64
2022-07-28T06:26:16.425Z,20.76
2022-07-28T06:28:44.907Z,20.87
2022-07-28T06:31:14.394Z,20.92
2022-07-28T06:33:42.550Z,20.99
2022-07-28T06:36:10.723Z,21.01
2022-07-28T06:38:38.878Z,21.03
2022-07-28T06:41:07.152Z,21.08
2022-07-28T06:43:38.758Z,21.10
2022-07-28T06:46:07.992Z,21.19
2022-07-28T06:48:39.470Z,21.29
2022-07-28T06:51:07.689Z,21.36
2022-07-28T06:53:36.025Z,21.47
2022-07-28T06:56:06.680Z,21.45
2022-07-28T06:58:35.700Z,21.43
2022-07-28T07:01:07.786Z,21.50
2022-07-28T07:03:37.526Z,21.60
2022-07-28T07:06:05.578Z,21.69
2022-07-28T07:08:33.795Z,21.81
2022-07-28T07:11:02.094Z,21.95
2022-07-28T07:13:30.278Z,22.04
2022-07-28T07:15:58.440Z,22.11
2022-07-28T07:18:26.774Z,22.20
2022-07-28T07:20:58.123Z,22.20
2022-07-28T07:23:26.254Z,22.26
2022-07-28T07:25:54.437Z,22.36
2022-07-28T07:28:22.429Z,22.43
2022-07-28T07:30:50.468Z,22.46
2022-07-28T07:33:18.555Z,22.50
2022-07-28T07:35:46.691Z,22.64
2022-07-28T07:38:16.162Z,22.79
2022-07-28T07:40:44.215Z,22.96
2022-07-28T07:43:12.353Z,23.10
2022-07-28T07:45:42.043Z,23.21
2022-07-28T07:48:10.141Z,23.29
2022-07-28T07:50:38.498Z,23.42
2022-07-28T07:53:06.553Z,23.59
2022-07-28T07:55:37.912Z,23.75
2022-07-28T07:58:06.767Z,23.82
2022-07-28T08:00:35.045Z,23.92
2022-07-28T08:03:03.191Z,24.08
2022-07-28T08:05:35.803Z,24.18
2022-07-28T08:08:05.942Z,24.27
2022-07-28T08:10:36.223Z,24.44
2022-07-28T08:13:04.746Z,24.59
2022-07-28T08:15:33.766Z,24.79
2022-07-28T08:18:02.539Z,25.01
2022-07-28T08:20:30.717Z,25.18
2022-07-28T08:22:59.363Z,25.30
2022-07-28T08:25:27.800Z,25.40
2022-07-28T08:27:57.236Z,25.39
2022-07-28T08:30:30.306Z,25.49
2022-07-28T08:33:00.501Z,25.71
2022-07-28T08:35:34.302Z,25.92
2022-07-28T08:38:03.777Z,25.99
2022-07-28T08:40:33.313Z,26.12
2022-07-28T08:43:08.591Z,26.12
2022-07-28T08:45:39.829Z,26.38
2022-07-28T08:48:10.438Z,26.66
2022-07-28T08:50:39.982Z,26.82
2022-07-28T08:53:09.654Z,27.02
2022-07-28T08:55:38.725Z,27.13
2022-07-28T08:58:09.065Z,27.17
2022-07-28T09:00:37.192Z,27.35
2022-07-28T09:03:05.796Z,27.52
2022-07-28T09:05:34.673Z,27.78
2022-07-28T09:08:03.965Z,27.89
2022-07-28T09:10:32.267Z,27.98
2022-07-28T09:13:00.305Z,27.89
2022-07-28T09:15:28.787Z,27.74
2022-07-28T09:33:54.562Z,27.87
2022-07-28T09:36:36.521Z,28.03
2022-07-28T09:39:13.999Z,28.11
2022-07-28T09:41:49.479Z,28.15
2022-07-28T09:44:21.725Z,28.20
2022-07-28T09:46:50.213Z,28.20
2022-07-28T09:49:18.567Z,28.28
2022-07-28T09:52:00.956Z,28.37
2022-07-28T09:54:30.783Z,28.53
2022-07-28T09:56:59.010Z,28.67
2022-07-28T09:59:28.175Z,28.70
2022-07-28T10:02:02.034Z,28.84
2022-07-28T10:04:32.683Z,29.24
2022-07-28T10:07:09.919Z,29.49
2022-07-28T10:09:40.638Z,29.52
2022-07-28T10:12:20.546Z,29.87
2022-07-28T10:14:50.436Z,30.12
2022-07-28T10:17:32.343Z,29.52
2022-07-28T10:20:01.826Z,29.59
2022-07-28T10:22:33.341Z,29.96
2022-07-28T10:25:09.785Z,29.83
2022-07-28T10:27:39.738Z,29.54
2022-07-28T10:30:08.820Z,29.26
2022-07-28T10:32:42.615Z,29.16
2022-07-28T10:35:12.572Z,29.01
2022-07-28T10:37:47.531Z,28.98
2022-07-28T10:40:19.547Z,28.91
2022-07-28T10:42:47.759Z,28.71
2022-07-28T10:45:18.290Z,28.52
2022-07-28T10:47:46.950Z,28.34
2022-07-28T10:50:15.834Z,28.19
2022-07-28T10:52:50.735Z,28.01
2022-07-28T10:55:32.198Z,27.81
2022-07-28T10:58:11.569Z,27.69
2022-07-28T11:00:55.958Z,27.54
2022-07-28T11:03:47.514Z,27.38
2022-07-28T11:06:30.305Z,27.34
2022-07-28T11:09:00.006Z,27.21
2022-07-28T11:11:51.170Z,27.09
2022-07-28T11:14:39.113Z,27.00
2022-07-28T11:17:24.581Z,27.02
2022-07-28T11:20:26.673Z,27.19
2022-07-28T11:22:51.831Z,27.28
2022-07-28T11:25:22.455Z,27.26
2022-07-28T11:28:16.047Z,27.29
2022-07-28T11:30:53.506Z,27.40
2022-07-28T11:33:22.572Z,27.52
2022-07-28T11:35:56.143Z,27.67
2022-07-28T11:38:30.535Z,27.75
2022-07-28T11:40:59.404Z,27.93
2022-07-28T11:43:38.961Z,28.09
2022-07-28T11:46:34.724Z,28.31
2022-07-28T11:49:36.876Z,28.69
2022-07-28T11:52:27.032Z,29.02
2022-07-28T11:54:58.403Z,29.39
2022-07-28T11:57:29.702Z,29.97
2022-07-28T12:08:53.792Z,31.70
2022-07-28T12:11:30.539Z,31.26
2022-07-28T12:14:00.583Z,30.93
2022-07-28T12:16:34.400Z,30.64
2022-07-28T12:19:07.813Z,30.44
2022-07-28T12:29:20.768Z,29.64
2022-07-28T12:32:05.372Z,29.59
2022-07-28T12:34:43.625Z,29.62
2022-07-28T12:37:15.975Z,29.73
2022-07-28T12:40:28.246Z,29.72
2022-07-28T12:43:09.902Z,29.28
2022-07-28T12:45:48.916Z,29.03
2022-07-28T12:48:20.065Z,29.13
2022-07-28T12:51:01.137Z,29.21
2022-07-28T12:53:45.918Z,29.02
2022-07-28T12:56:25.543Z,28.94
2022-07-28T12:59:06.056Z,28.87
2022-07-28T13:01:50.193Z,28.75
2022-07-28T13:04:19.223Z,28.77
2022-07-28T13:06:57.079Z,28.95
2022-07-28T13:09:32.901Z,29.23
2022-07-28T13:12:03.696Z,29.49
2022-07-28T13:15:16.413Z,29.49
2022-07-28T13:17:53.459Z,29.76
2022-07-28T13:20:22.054Z,29.82
2022-07-28T13:22:50.419Z,30.19
2022-07-28T13:25:18.568Z,30.28
2022-07-28T13:27:52.234Z,30.54
2022-07-28T13:30:23.429Z,30.60
2022-07-28T13:32:54.816Z,30.75
2022-07-28T13:35:25.729Z,30.82
2022-07-28T13:37:53.877Z,30.70
2022-07-28T13:40:25.276Z,30.51
2022-07-28T13:42:56.939Z,30.23
2022-07-28T13:45:29.991Z,30.05
2022-07-28T13:48:00.036Z,29.87
2022-07-28T13:50:28.301Z,29.88
2022-07-28T13:52:56.459Z,29.94
2022-07-28T13:55:27.630Z,30.19
2022-07-28T13:57:56.593Z,30.46
2022-07-28T14:00:25.176Z,30.65
2022-07-28T14:02:53.388Z,30.91
2022-07-28T14:05:23.687Z,30.87
2022-07-28T14:07:51.817Z,30.86
2022-07-28T14:10:20.070Z,30.94
2022-07-28T14:12:54.905Z,30.94
2022-07-28T14:15:24.669Z,30.94
2022-07-28T14:17:52.856Z,30.94
2022-07-28T14:20:22.520Z,30.91
2022-07-28T14:22:52.224Z,30.77
2022-07-28T14:25:21.786Z,30.90
2022-07-28T14:27:51.117Z,31.05
2022-07-28T14:30:20.775Z,30.82
2022-07-28T14:32:49.512Z,30.62
2022-07-28T14:35:17.931Z,30.78
2022-07-28T14:40:57.643Z,30.53
2022-07-28T14:44:24.745Z,30.21
2022-07-28T14:50:04.552Z,29.19
2022-07-28T14:52:33.070Z,28.97
2022-07-28T14:55:02.615Z,28.88
2022-07-28T14:57:51.745Z,28.80
2022-07-28T15:00:19.309Z,28.83
2022-07-28T15:02:47.836Z,28.86
2022-07-28T15:05:16.261Z,28.88
2022-07-28T15:07:44.387Z,28.87
2022-07-28T15:10:13.948Z,29.07
2022-07-28T15:12:42.162Z,29.27
2022-07-28T15:15:11.049Z,29.57
2022-07-28T15:17:41.892Z,29.75
2022-07-28T15:20:13.659Z,29.87
2022-07-28T15:22:42.095Z,29.98
2022-07-28T15:25:10.932Z,29.88
2022-07-28T15:27:45.599Z,29.72
2022-07-28T15:30:14.827Z,29.62
2022-07-28T15:32:56.786Z,29.56
2022-07-28T15:35:26.041Z,29.33
2022-07-28T15:37:54.421Z,29.33
2022-07-28T15:40:23.036Z,29.30
2022-07-28T15:42:52.979Z,29.34
2022-07-28T15:45:21.440Z,29.23
2022-07-28T15:47:49.929Z,29.24
2022-07-28T15:50:18.222Z,29.36
2022-07-28T15:52:52.490Z,29.46
2022-07-28T15:55:23.717Z,29.53
2022-07-28T15:58:01.955Z,29.63
2022-07-28T16:00:31.467Z,29.63
2022-07-28T16:03:03.831Z,29.58
2022-07-28T16:05:37.383Z,29.58
2022-07-28T16:08:05.898Z,29.49
2022-07-28T16:10:46.484Z,29.35
2022-07-28T16:13:56.935Z,29.12
2022-07-28T16:16:35.943Z,28.92
2022-07-28T16:19:25.177Z,28.85
2022-07-28T16:22:05.635Z,28.88
2022-07-28T16:24:35.177Z,28.99
2022-07-28T16:27:04.435Z,29.04
2022-07-28T16:29:37.960Z,29.05
2022-07-28T16:32:11.867Z,28.97
2022-07-28T16:34:45.647Z,28.92
2022-07-28T16:37:19.958Z,28.90
2022-07-28T16:39:50.081Z,28.86
2022-07-28T16:42:21.916Z,28.78
2022-07-28T16:44:55.313Z,28.72
2022-07-28T16:47:26.310Z,28.67
2022-07-28T16:50:08.999Z,28.62
2022-07-28T16:52:44.652Z,28.55
2022-07-28T16:55:16.915Z,28.59
2022-07-28T16:57:47.263Z,28.69
2022-07-28T17:00:16.774Z,28.71
2022-07-28T17:02:49.255Z,28.58
2022-07-28T17:05:17.647Z,28.49
2022-07-28T17:07:46.316Z,28.38
2022-07-28T17:10:27.531Z,28.25
2022-07-28T17:12:59.960Z,28.08
2022-07-28T17:15:35.627Z,28.01
2022-07-28T17:18:05.822Z,28.04
2022-07-28T17:20:38.282Z,27.98
2022-07-28T17:23:09.259Z,27.95
2022-07-28T17:26:34.728Z,27.88
2022-07-28T17:28:52.397Z,27.84
2022-07-28T17:31:23.517Z,27.90
2022-07-28T17:34:04.451Z,27.87
2022-07-28T17:36:45.313Z,27.85
2022-07-28T17:39:18.509Z,27.71
2022-07-28T17:41:54.200Z,27.59
2022-07-28T17:44:28.466Z,27.64
2022-07-28T17:47:00.443Z,27.53
2022-07-28T17:49:35.447Z,27.45
2022-07-28T17:52:09.123Z,27.39
2022-07-28T17:54:55.994Z,27.26
2022-07-28T17:57:37.583Z,27.11
2022-07-28T18:00:20.085Z,27.01
2022-07-28T18:02:50.079Z,26.86
2022-07-28T18:05:29.212Z,26.62
2022-07-28T18:07:59.382Z,26.41
2022-07-28T18:10:35.320Z,26.23
2022-07-28T18:13:17.925Z,26.03
2022-07-28T18:16:11.526Z,25.87
2022-07-28T18:18:44.878Z,25.74
2022-07-28T18:21:26.137Z,25.61
2022-07-28T18:23:55.972Z,25.43
2022-07-28T18:26:24.668Z,25.32
2022-07-28T18:28:53.756Z,25.25
2022-07-28T18:31:21.916Z,25.15
2022-07-28T18:33:50.094Z,25.07
2022-07-28T18:36:19.569Z,24.95
2022-07-28T18:38:49.074Z,24.87
2022-07-28T18:41:18.361Z,24.79
2022-07-28T18:43:47.042Z,24.71
2022-07-28T18:46:21.065Z,24.54
2022-07-28T18:48:57.970Z,24.42
2022-07-28T18:51:27.685Z,24.36
2022-07-28T18:53:55.956Z,24.26
2022-07-28T18:56:23.989Z,24.17
2022-07-28T18:58:58.615Z,24.08
2022-07-28T19:01:30.882Z,24.00
2022-07-28T19:03:59.291Z,23.90
2022-07-28T19:06:29.199Z,23.85
2022-07-28T19:08:57.321Z,23.76
2022-07-28T19:11:25.428Z,23.72
2022-07-28T19:13:56.507Z,23.66
2022-07-28T19:16:26.082Z,23.50
2022-07-28T19:18:59.992Z,23.41
2022-07-28T19:21:43.141Z,23.36
2022-07-28T19:24:16.650Z,23.29
2022-07-28T19:26:55.617Z,23.21
2022-07-28T19:29:40.966Z,23.11
2022-07-28T19:32:10.484Z,23.05
2022-07-28T19:34:41.883Z,22.98
2022-07-28T19:37:19.319Z,22.95
2022-07-28T19:39:49.363Z,22.91
2022-07-28T19:42:17.820Z,22.85
2022-07-28T19:45:06.484Z,22.75
2022-07-28T19:47:37.151Z,22.72
2022-07-28T19:50:08.233Z,22.66
2022-07-28T19:52:37.864Z,22.57
2022-07-28T19:55:07.911Z,22.54
2022-07-28T19:57:37.163Z,22.50
2022-07-28T20:00:07.472Z,22.43
2022-07-28T20:02:40.155Z,22.39
2022-07-28T20:05:09.691Z,22.33
2022-07-28T20:08:03.979Z,22.24
2022-07-28T20:18:28.102Z,22.02
2022-07-28T20:21:38.358Z,21.99
2022-07-28T20:48:19.595Z,21.49
2022-07-28T20:54:18.479Z,21.37
2022-07-28T21:12:20.000Z,21.07
2022-07-28T21:17:59.129Z,20.98
2022-07-28T21:20:27.242Z,20.95
2022-07-28T21:22:55.330Z,20.92
2022-07-28T21:25:23.451Z,20.91
2022-07-28T21:28:10.132Z,20.89
2022-07-28T21:30:38.207Z,20.85
2022-07-28T21:33:06.285Z,20.80
2022-07-28T21:35:34.715Z,20.79
2022-07-28T21:38:02.808Z,20.76
2022-07-28T21:40:31.274Z,20.72
2022-07-28T21:43:00.762Z,20.65
2022-07-28T21:45:28.876Z,20.61
2022-07-28T21:47:56.958Z,20.57
2022-07-28T21:50:28.355Z,20.55
2022-07-28T21:52:56.460Z,20.51
2022-07-28T21:55:24.555Z,20.50
2022-07-28T21:57:52.584Z,20.47
2022-07-28T22:00:23.033Z,20.44
2022-07-28T22:02:51.055Z,20.41
2022-07-28T22:05:19.376Z,20.41
2022-07-28T22:07:48.311Z,20.42
2022-07-28T22:10:17.475Z,20.34
2022-07-28T22:12:45.847Z,20.33
2022-07-28T22:15:13.958Z,20.33
2022-07-28T22:17:43.504Z,20.31
2022-07-28T22:20:12.731Z,20.32
2022-07-28T22:22:41.002Z,20.31
2022-07-28T22:25:09.830Z,20.29
2022-07-28T22:27:37.918Z,20.28
2022-07-28T22:30:07.453Z,20.26
2022-07-28T22:32:35.496Z,20.24
2022-07-28T22:35:05.488Z,20.20
2022-07-28T22:37:40.219Z,20.19
2022-07-28T22:40:09.923Z,20.11
2022-07-28T22:42:38.301Z,20.11
2022-07-28T22:45:07.291Z,20.09
2022-07-28T22:47:35.451Z,20.10
2022-07-28T22:50:05.950Z,20.09
2022-07-28T22:52:34.529Z,20.09
2022-07-28T22:55:02.795Z,20.05
2022-07-28T22:57:30.901Z,20.00
2022-07-28T22:59:58.929Z,20.00
2022-07-28T23:02:27.003Z,19.99
2022-07-28T23:04:55.049Z,19.99
2022-07-28T23:07:51.037Z,19.99
2022-07-28T23:10:13.106Z,19.92
2022-07-28T23:12:42.130Z,19.90
2022-07-28T23:15:11.965Z,19.91
2022-07-28T23:17:40.453Z,19.90
2022-07-28T23:20:11.408Z,19.89
2022-07-28T23:22:40.815Z,19.88
2022-07-28T23:25:09.741Z,19.90
2022-07-28T23:27:38.505Z,19.87
2022-07-28T23:30:07.997Z,19.88
2022-07-28T23:32:43.767Z,19.92
2022-07-28T23:35:12.223Z,19.88
2022-07-28T23:37:41.660Z,19.89
2022-07-28T23:40:11.130Z,19.89
2022-07-28T23:42:39.273Z,19.89
2022-07-28T23:45:08.280Z,19.88
2022-07-28T23:47:36.490Z,19.88
2022-07-28T23:50:06.015Z,19.89
2022-07-28T23:52:34.670Z,19.88
2022-07-28T23:55:04.682Z,19.89
2022-07-28T23:57:32.907Z,19.86
